Revelation — WDD5270 — position and weather

sailwx.info

Track history (hours):
 
Tides and Currents Weather Stations Pressure Air Temp Water Temp Dewpoint Dewpoint Depression Visibility Wind Speed Wind Dir Waves Ship Positions

Revelation

Owner: Gaffney, Francis A, Nashville, TN. More information available from US FCC via Universal Licensing System and Coast Guard Vessel Documentation Center.

Last reported at 2017-Sep-28 09:46 UTC. Time now 2017-Oct-17 01:10 UTC.
Position N 37°08' W 008°32'.
Warning: this ship's position is 18 days out of date.

Length 16 m.

Type: Sailing vessel. MMSI: 367155930.

Date/timePositionNaut miles runAvg speedWind from/ knotsBaromVisibWave heightAir tempDewpointWater temp
2017-Sep-28 09:46N 37°08' W 008°32'0 0.2
2017-Sep-28 09:28N 37°08' W 008°32'0 0.1
2017-Sep-28 09:00N 37°08' W 008°32'0 0.3
2017-Sep-28 08:27N 37°08' W 008°32'0 0.0
2017-Sep-28 08:00N 37°08' W 008°32'  
2017-Sep-24 15:46N 37°07' W 008°32'0 0.0
2017-Sep-24 15:28N 37°07' W 008°32'0 0.0
2017-Sep-24 14:52N 37°07' W 008°32'0 0.0
2017-Sep-24 14:28N 37°07' W 008°32'0 0.0
2017-Sep-24 13:22N 37°07' W 008°32'  
2017-Sep-21 10:14N 37°07' W 008°32'0 0.0
2017-Sep-21 09:53N 37°07' W 008°32'1 1.1
2017-Sep-21 09:23N 37°07' W 008°32'2 5.5
2017-Sep-21 09:00N 37°05' W 008°34'3 6.1
2017-Sep-21 08:29N 37°04' W 008°37'47 4.6
2017-Sep-20 22:08N 37°39' W 009°16'1 6.7
2017-Sep-20 21:56N 37°41' W 009°16'3 5.9
2017-Sep-20 21:29N 37°43' W 009°18'3 5.1
2017-Sep-20 20:59N 37°45' W 009°19'3 5.9
2017-Sep-20 20:28N 37°48' W 009°22'3 6.2
2017-Sep-20 19:59N 37°50' W 009°24'3 6.5
2017-Sep-20 19:27N 37°53' W 009°27'3 6.6
2017-Sep-20 19:00N 37°55' W 009°29'3 6.4
2017-Sep-20 18:31N 37°58' W 009°32'3 6.6
2017-Sep-20 18:00N 38°00' W 009°34'4 7.3
2017-Sep-20 17:30N 38°03' W 009°37'4 7.6
2017-Sep-20 16:59N 38°05' W 009°41'4 7.7
2017-Sep-20 16:29N 38°08' W 009°45'22 7.4
2017-Sep-20 13:31N 38°23' W 010°05'7 7.4
2017-Sep-20 12:31N 38°29' W 010°10'2 7.8
2017-Sep-20 12:14N 38°31' W 010°11'7 8.1
2017-Sep-20 11:26N 38°38' W 010°14'18 8.1
2017-Sep-20 09:12N 38°56' W 010°15'2 8.0
2017-Sep-20 08:59N 38°57' W 010°15'6 8.1
2017-Sep-20 08:17N 39°03' W 010°15'3 8.1
2017-Sep-20 07:56N 39°06' W 010°15'5 7.8
2017-Sep-20 07:17N 39°11' W 010°15'  
Track history (hours):
 
Tides and Currents Weather Stations Pressure Air Temp Water Temp Dewpoint Dewpoint Depression Visibility Wind Speed Wind Dir Waves Ship Positions

Revelation

Owner: Gaffney, Francis A, Nashville, TN. More information available from US FCC via Universal Licensing System and Coast Guard Vessel Documentation Center.

Last reported at 2017-Sep-28 09:46 UTC. Time now 2017-Oct-17 01:10 UTC.
Position N 37°08' W 008°32'.
Warning: this ship's position is 18 days out of date.

Length 16 m.

Type: Sailing vessel. MMSI: 367155930.

Date/timePositionNaut miles runAvg speedWind from/ knotsBaromVisibWave heightAir tempDewpointWater temp
2017-Sep-28 09:46N 37°08' W 008°32'0 0.2
2017-Sep-28 09:28N 37°08' W 008°32'0 0.1
2017-Sep-28 09:00N 37°08' W 008°32'0 0.3
2017-Sep-28 08:27N 37°08' W 008°32'0 0.0
2017-Sep-28 08:00N 37°08' W 008°32'  
2017-Sep-24 15:46N 37°07' W 008°32'0 0.0
2017-Sep-24 15:28N 37°07' W 008°32'0 0.0
2017-Sep-24 14:52N 37°07' W 008°32'0 0.0
2017-Sep-24 14:28N 37°07' W 008°32'0 0.0
2017-Sep-24 13:22N 37°07' W 008°32'  
2017-Sep-21 10:14N 37°07' W 008°32'0 0.0
2017-Sep-21 09:53N 37°07' W 008°32'1 1.1
2017-Sep-21 09:23N 37°07' W 008°32'2 5.5
2017-Sep-21 09:00N 37°05' W 008°34'3 6.1
2017-Sep-21 08:29N 37°04' W 008°37'47 4.6
2017-Sep-20 22:08N 37°39' W 009°16'1 6.7
2017-Sep-20 21:56N 37°41' W 009°16'3 5.9
2017-Sep-20 21:29N 37°43' W 009°18'3 5.1
2017-Sep-20 20:59N 37°45' W 009°19'3 5.9
2017-Sep-20 20:28N 37°48' W 009°22'3 6.2
2017-Sep-20 19:59N 37°50' W 009°24'3 6.5
2017-Sep-20 19:27N 37°53' W 009°27'3 6.6
2017-Sep-20 19:00N 37°55' W 009°29'3 6.4
2017-Sep-20 18:31N 37°58' W 009°32'3 6.6
2017-Sep-20 18:00N 38°00' W 009°34'4 7.3
2017-Sep-20 17:30N 38°03' W 009°37'4 7.6
2017-Sep-20 16:59N 38°05' W 009°41'4 7.7
2017-Sep-20 16:29N 38°08' W 009°45'22 7.4
2017-Sep-20 13:31N 38°23' W 010°05'7 7.4
2017-Sep-20 12:31N 38°29' W 010°10'2 7.8
2017-Sep-20 12:14N 38°31' W 010°11'7 8.1
2017-Sep-20 11:26N 38°38' W 010°14'18 8.1
2017-Sep-20 09:12N 38°56' W 010°15'2 8.0
2017-Sep-20 08:59N 38°57' W 010°15'6 8.1
2017-Sep-20 08:17N 39°03' W 010°15'3 8.1
2017-Sep-20 07:56N 39°06' W 010°15'5 7.8
2017-Sep-20 07:17N 39°11' W 010°15'  

Dump ship's entire track history